Time;durP1;ratioP1;P1;durP2;ratioP2;P2;SDS_P1;SDS_P2;PMS_P1;PMS_P2;Temp;Humidity;BMP_temperature;BMP_pressure;BME280_temperature;BME280_humidity;BME280_pressure;Samples;Min_cycle;Max_cycle;Signal;HPM_P1;HPM_P2
2022/04/23 00:02:20;;;;;;;8.70;4.93;;;4.20;78.00;;;;;;5050322;28;21192;-52
2022/04/23 00:04:47;;;;;;;6.23;5.63;;;4.20;95.40;;;;;;5047675;28;20549;-52
2022/04/23 00:07:13;;;;;;;6.10;5.60;;;4.20;79.00;;;;;;5050997;28;20477;-52
2022/04/23 00:09:40;;;;;;;5.83;5.43;;;4.10;86.60;;;;;;5049941;28;21020;-51
2022/04/23 00:12:08;;;;;;;6.10;5.70;;;4.10;89.30;;;;;;5051811;28;20537;-52
2022/04/23 00:14:36;;;;;;;6.47;5.97;;;4.10;87.10;;;;;;5050146;28;20461;-52
2022/04/23 00:17:03;;;;;;;6.23;5.80;;;4.00;86.20;;;;;;5048987;28;20465;-52
2022/04/23 00:19:30;;;;;;;6.97;6.30;;;4.00;99.90;;;;;;5046303;28;20521;-51
2022/04/23 00:21:57;;;;;;;7.57;6.77;;;4.00;99.10;;;;;;5052600;28;20516;-52
2022/04/23 00:24:23;;;;;;;6.20;5.63;;;4.00;99.90;;;;;;5053550;28;20552;-52
2022/04/23 00:26:50;;;;;;;7.67;7.07;;;3.90;99.90;;;;;;5048623;28;20580;-51
2022/04/23 00:29:17;;;;;;;7.97;6.23;;;3.90;99.90;;;;;;5051427;28;20573;-52
2022/04/23 00:31:45;;;;;;;6.73;6.13;;;3.90;99.90;;;;;;5048237;28;20473;-52
2022/04/23 00:34:12;;;;;;;7.43;6.73;;;3.80;99.90;;;;;;5046522;28;20536;-52
2022/04/23 00:36:38;;;;;;;6.87;6.37;;;3.90;99.90;;;;;;5047898;28;20466;-51
2022/04/23 00:39:05;;;;;;;7.00;6.50;;;3.80;99.90;;;;;;5048612;28;20568;-52
2022/04/23 00:41:47;;;;;;;6.53;5.93;;;3.70;99.90;;;;;;5050727;28;20548;-51
2022/04/23 00:44:14;;;;;;;7.00;6.40;;;3.70;99.90;;;;;;5048695;28;20458;-51
2022/04/23 00:46:41;;;;;;;7.10;6.40;;;3.70;99.90;;;;;;5048627;28;20485;-52
2022/04/23 00:49:10;;;;;;;7.53;6.83;;;3.60;99.90;;;;;;5050438;28;20847;-52
2022/04/23 00:51:39;;;;;;;6.30;5.83;;;3.60;99.90;;;;;;5049742;28;20501;-52
2022/04/23 00:54:07;;;;;;;7.13;6.67;;;3.60;99.90;;;;;;5043459;28;20548;-52
2022/04/23 00:56:35;;;;;;;6.90;6.30;;;3.50;99.90;;;;;;5049283;28;20960;-51
2022/04/23 00:59:04;;;;;;;6.90;6.30;;;3.50;99.90;;;;;;5047196;28;20481;-51
2022/04/23 01:01:31;;;;;;;7.20;6.70;;;3.50;99.90;;;;;;5045838;28;20470;-53
2022/04/23 01:04:02;;;;;;;6.67;6.17;;;3.40;99.90;;;;;;5048963;28;20549;-52
2022/04/23 01:06:33;;;;;;;6.20;5.80;;;3.40;99.90;;;;;;5047507;28;20519;-50
2022/04/23 01:09:02;;;;;;;7.60;6.90;;;3.30;99.90;;;;;;5048410;28;20572;-52
2022/04/23 01:11:29;;;;;;;7.57;6.87;;;3.30;99.90;;;;;;5049999;28;20553;-51
2022/04/23 01:13:55;;;;;;;7.70;7.10;;;3.30;99.90;;;;;;5052381;28;21040;-51
2022/04/23 01:16:22;;;;;;;6.63;6.20;;;3.30;99.90;;;;;;5052653;28;21039;-51
2022/04/23 01:18:48;;;;;;;7.80;6.97;;;3.30;99.90;;;;;;5054077;28;20556;-51
2022/04/23 01:21:16;;;;;;;8.97;8.07;;;3.30;99.90;;;;;;5053059;28;20454;-51
2022/04/23 01:23:45;;;;;;;7.00;6.50;;;3.20;99.90;;;;;;5051937;28;20554;-51
2022/04/23 01:26:14;;;;;;;7.77;6.87;;;3.20;99.90;;;;;;5051311;28;20473;-51
2022/04/23 01:28:42;;;;;;;8.10;7.50;;;3.20;99.90;;;;;;5051116;28;20518;-51
2022/04/23 01:31:09;;;;;;;7.67;7.07;;;3.20;99.90;;;;;;5043332;28;20497;-51
2022/04/23 01:33:36;;;;;;;8.07;7.33;;;3.20;99.90;;;;;;5052042;28;20585;-51
2022/04/23 01:36:03;;;;;;;7.73;7.03;;;3.20;99.90;;;;;;5052390;28;20840;-51
2022/04/23 01:38:31;;;;;;;8.77;7.97;;;3.10;99.90;;;;;;5051329;28;20489;-52
2022/04/23 01:40:58;;;;;;;7.63;7.03;;;3.10;99.90;;;;;;5052464;28;20540;-52
2022/04/23 01:43:24;;;;;;;7.43;6.83;;;3.10;99.90;;;;;;5051840;28;20556;-51
2022/04/23 01:45:51;;;;;;;7.93;7.23;;;3.10;99.90;;;;;;5049506;28;20508;-51
2022/04/23 01:48:17;;;;;;;7.67;6.97;;;3.10;99.90;;;;;;5052743;28;20581;-51
2022/04/23 01:50:44;;;;;;;8.13;7.43;;;3.00;99.90;;;;;;5052135;28;20497;-51
2022/04/23 01:53:10;;;;;;;8.03;7.33;;;3.00;99.90;;;;;;5053628;28;20489;-50
2022/04/23 01:55:38;;;;;;;7.53;6.83;;;3.00;99.90;;;;;;5051896;28;21139;-50
2022/04/23 01:58:05;;;;;;;7.83;7.20;;;3.00;99.90;;;;;;5050332;28;22059;-50
2022/04/23 02:00:31;;;;;;;8.87;7.77;;;3.00;99.90;;;;;;5051819;28;20489;-52
2022/04/23 02:02:58;;;;;;;8.10;7.50;;;2.90;99.90;;;;;;5053287;28;20488;-51
2022/04/23 02:05:25;;;;;;;7.23;6.73;;;3.00;99.90;;;;;;5052543;28;20493;-51
2022/04/23 02:07:51;;;;;;;9.60;7.83;;;2.90;99.90;;;;;;5050407;28;20486;-51
2022/04/23 02:10:18;;;;;;;8.43;7.73;;;2.90;99.90;;;;;;5051590;28;20580;-51
2022/04/23 02:12:46;;;;;;;8.97;8.17;;;2.90;99.90;;;;;;5052349;28;20549;-51
2022/04/23 02:15:14;;;;;;;8.43;7.63;;;2.80;99.90;;;;;;5051070;28;20459;-51
2022/04/23 02:17:42;;;;;;;8.43;7.73;;;2.80;99.90;;;;;;5050677;28;20504;-51
2022/04/23 02:20:11;;;;;;;11.03;8.07;;;2.80;99.90;;;;;;5053107;28;20485;-52
2022/04/23 02:22:38;;;;;;;9.30;8.37;;;2.80;99.90;;;;;;5049901;28;20465;-51
2022/04/23 02:25:06;;;;;;;8.60;8.00;;;2.80;99.90;;;;;;5050792;28;20486;-51
2022/04/23 02:27:41;;;;;;;10.47;8.80;;;2.80;99.90;;;;;;5051265;28;20564;-52
2022/04/23 02:30:11;;;;;;;9.53;8.70;;;2.80;99.90;;;;;;5037219;28;20488;-51
2022/04/23 02:32:38;;;;;;;9.43;8.53;;;2.80;99.90;;;;;;5047531;28;20548;-51
2022/04/23 02:35:05;;;;;;;8.40;7.80;;;2.80;99.90;;;;;;5053000;28;20454;-52
2022/04/23 02:37:34;;;;;;;8.97;8.30;;;2.70;99.90;;;;;;5051348;28;20964;-51
2022/04/23 02:40:01;;;;;;;8.77;7.97;;;2.70;99.90;;;;;;5051696;28;20490;-51
2022/04/23 02:42:28;;;;;;;10.17;9.17;;;2.70;99.90;;;;;;5052389;28;20953;-51
2022/04/23 02:44:55;;;;;;;10.20;9.20;;;2.70;99.90;;;;;;5050701;28;20553;-51
2022/04/23 02:47:23;;;;;;;9.87;8.87;;;2.70;99.90;;;;;;5051694;28;21060;-51
2022/04/23 02:49:50;;;;;;;9.50;8.80;;;2.70;99.90;;;;;;5049535;28;20488;-51
2022/04/23 02:52:16;;;;;;;9.63;8.77;;;2.70;99.90;;;;;;5049896;28;20494;-51
2022/04/23 02:54:43;;;;;;;10.03;9.03;;;2.60;99.90;;;;;;5050844;28;20508;-51
2022/04/23 02:57:11;;;;;;;9.60;8.80;;;2.60;99.90;;;;;;5051052;28;20545;-52
2022/04/23 02:59:39;;;;;;;9.73;8.93;;;2.60;99.90;;;;;;5050712;28;20496;-51
2022/04/23 03:02:06;;;;;;;10.30;9.30;;;2.60;99.90;;;;;;5050769;28;20458;-51
2022/04/23 03:04:34;;;;;;;9.50;8.70;;;2.60;99.90;;;;;;5051024;28;20497;-51
2022/04/23 03:07:01;;;;;;;12.07;8.97;;;2.50;99.90;;;;;;5048290;28;20503;-52
2022/04/23 03:09:27;;;;;;;9.10;8.30;;;2.50;99.90;;;;;;5047782;28;20539;-51
2022/04/23 03:11:54;;;;;;;10.17;9.27;;;2.50;99.90;;;;;;5051005;28;20973;-54
2022/04/23 03:14:20;;;;;;;9.57;8.67;;;2.50;99.90;;;;;;5052222;28;20505;-52
2022/04/23 03:16:47;;;;;;;9.70;8.90;;;2.50;99.90;;;;;;5048650;28;20548;-52
2022/04/23 03:19:14;;;;;;;9.50;8.80;;;2.50;99.90;;;;;;5052613;28;21003;-52
2022/04/23 03:21:42;;;;;;;11.83;9.40;;;2.40;99.90;;;;;;5050717;28;20556;-52
2022/04/23 03:24:08;;;;;;;10.03;9.23;;;2.40;99.90;;;;;;5051801;28;20539;-52
2022/04/23 03:26:35;;;;;;;10.90;9.57;;;2.40;99.90;;;;;;5051166;28;20495;-52
2022/04/23 03:29:03;;;;;;;10.13;9.23;;;2.40;99.90;;;;;;5050910;28;20576;-52
2022/04/23 03:31:29;;;;;;;10.67;9.70;;;2.40;99.90;;;;;;5049174;28;20892;-50
2022/04/23 03:33:56;;;;;;;10.00;9.00;;;2.40;99.90;;;;;;5053025;28;20488;-52
2022/04/23 03:36:23;;;;;;;10.10;9.30;;;2.40;99.90;;;;;;5051240;28;20497;-52
2022/04/23 03:38:50;;;;;;;10.53;9.60;;;2.40;99.90;;;;;;5048779;28;20512;-51
2022/04/23 03:41:17;;;;;;;11.37;10.37;;;2.40;99.90;;;;;;5050997;28;20493;-51
2022/04/23 03:43:44;;;;;;;10.40;9.43;;;2.40;99.90;;;;;;5049917;28;20470;-52
2022/04/23 03:46:11;;;;;;;9.87;8.87;;;2.50;99.90;;;;;;5049231;28;21017;-52
2022/04/23 03:48:38;;;;;;;15.57;9.60;;;2.50;99.90;;;;;;5054714;28;20512;-51
2022/04/23 03:51:05;;;;;;;11.97;10.80;;;2.50;99.90;;;;;;5051250;28;20492;-52
2022/04/23 03:53:31;;;;;;;14.93;8.77;;;2.40;99.90;;;;;;5051308;28;20504;-51
2022/04/23 03:55:59;;;;;;;11.10;10.10;;;2.40;99.90;;;;;;5049757;28;20552;-51
2022/04/23 03:58:26;;;;;;;12.00;10.20;;;2.40;99.90;;;;;;5050519;28;21047;-51
2022/04/23 04:00:52;;;;;;;11.57;10.43;;;2.40;99.90;;;;;;5047659;28;20461;-51
2022/04/23 04:03:19;;;;;;;10.07;9.17;;;2.40;99.90;;;;;;5051804;28;20540;-51
2022/04/23 04:05:48;;;;;;;11.80;10.70;;;2.40;99.90;;;;;;5050790;28;20561;-51
2022/04/23 04:08:14;;;;;;;11.90;10.60;;;2.40;99.90;;;;;;5043970;28;20482;-51
2022/04/23 04:10:41;;;;;;;11.55;10.55;;;2.50;99.90;;;;;;5051190;28;21033;-52
2022/04/23 04:13:09;;;;;;;13.07;11.77;;;2.60;99.90;;;;;;5045304;28;21029;-53
2022/04/23 04:15:36;;;;;;;11.43;10.40;;;2.70;99.90;;;;;;5048768;28;20504;-53
2022/04/23 04:18:03;;;;;;;12.87;11.57;;;2.80;99.90;;;;;;5051366;28;21020;-53
2022/04/23 04:20:32;;;;;;;12.90;11.80;;;2.80;99.90;;;;;;5052155;28;20493;-52
2022/04/23 04:22:58;;;;;;;12.03;11.00;;;3.00;99.90;;;;;;5050396;28;20532;-53
2022/04/23 04:25:25;;;;;;;11.33;10.30;;;3.00;99.90;;;;;;5050813;28;20556;-52
2022/04/23 04:27:52;;;;;;;12.63;11.33;;;3.00;99.90;;;;;;5049899;28;20547;-52
2022/04/23 04:30:20;;;;;;;13.73;12.37;;;3.10;99.90;;;;;;5048037;28;20485;-52
2022/04/23 04:32:47;;;;;;;18.03;11.50;;;3.10;99.90;;;;;;5049022;28;20505;-52
2022/04/23 04:35:14;;;;;;;12.23;11.03;;;3.20;99.90;;;;;;5048553;28;20469;-54
2022/04/23 04:37:40;;;;;;;12.50;11.20;;;3.20;99.90;;;;;;5050509;28;20504;-56
2022/04/23 04:40:08;;;;;;;13.10;12.00;;;3.20;99.90;;;;;;5049656;28;20565;-52
2022/04/23 04:42:35;;;;;;;12.33;11.20;;;3.30;99.90;;;;;;5050518;28;20953;-52
2022/04/23 04:45:03;;;;;;;12.73;11.50;;;3.40;99.90;;;;;;5045059;28;20463;-53
2022/04/23 04:47:31;;;;;;;12.30;11.00;;;3.50;99.90;;;;;;5051732;28;20862;-53
2022/04/23 04:49:58;;;;;;;11.87;10.87;;;3.50;99.90;;;;;;5045552;28;20560;-52
2022/04/23 04:52:24;;;;;;;12.33;11.20;;;3.50;99.90;;;;;;5052347;28;20493;-53
2022/04/23 04:54:51;;;;;;;12.80;11.57;;;3.60;99.90;;;;;;5051503;28;20489;-52
2022/04/23 04:57:17;;;;;;;15.60;12.70;;;3.70;99.90;;;;;;5050517;28;20989;-53
2022/04/23 04:59:44;;;;;;;14.70;11.77;;;3.70;99.90;;;;;;5046857;28;20478;-53
2022/04/23 05:02:10;;;;;;;13.10;11.90;;;3.90;99.90;;;;;;5048252;28;20579;-53
2022/04/23 05:04:38;;;;;;;13.50;12.20;;;4.00;99.90;;;;;;5045081;28;21028;-53
2022/04/23 05:07:05;;;;;;;11.90;10.77;;;4.10;99.90;;;;;;5046610;28;20544;-53
2022/04/23 05:09:32;;;;;;;13.20;11.80;;;4.20;99.90;;;;;;5047649;28;20489;-53
2022/04/23 05:11:58;;;;;;;15.67;12.63;;;4.40;99.90;;;;;;5053057;28;20457;-53
2022/04/23 05:14:25;;;;;;;13.10;11.80;;;4.50;99.90;;;;;;5054197;28;20493;-53
2022/04/23 05:16:51;;;;;;;16.13;11.63;;;4.60;99.90;;;;;;5052700;28;20516;-53
2022/04/23 05:19:18;;;;;;;12.23;11.13;;;4.70;99.90;;;;;;5051985;28;21104;-53
2022/04/23 05:21:46;;;;;;;11.83;10.80;;;4.80;99.90;;;;;;5051551;28;20493;-52
2022/04/23 05:24:12;;;;;;;12.70;11.60;;;4.90;99.90;;;;;;5052212;28;20485;-52
2022/04/23 05:26:39;;;;;;;13.20;12.00;;;5.10;99.90;;;;;;5053725;28;20485;-53
2022/04/23 05:29:05;;;;;;;13.20;11.80;;;5.20;99.90;;;;;;5053081;28;20489;-54
2022/04/23 05:31:33;;;;;;;13.07;11.63;;;5.40;99.90;;;;;;5046536;28;20866;-53
2022/04/23 05:33:59;;;;;;;13.67;12.13;;;5.60;74.50;;;;;;5052724;28;20552;-52
2022/04/23 05:36:26;;;;;;;14.03;12.57;;;5.70;42.60;;;;;;5054647;28;20496;-52
2022/04/23 05:38:54;;;;;;;12.90;11.57;;;5.90;76.80;;;;;;5051540;28;20888;-53
2022/04/23 05:41:21;;;;;;;14.93;12.13;;;6.00;82.00;;;;;;5051805;28;20496;-52
2022/04/23 05:43:47;;;;;;;14.77;11.93;;;6.20;83.80;;;;;;5052563;28;20493;-52
2022/04/23 05:46:16;;;;;;;13.80;11.30;;;6.30;99.90;;;;;;5053540;28;20988;-54
2022/04/23 05:48:42;;;;;;;12.53;11.30;;;6.50;99.90;;;;;;5052569;28;21212;-53
2022/04/23 05:51:09;;;;;;;12.23;11.03;;;6.60;99.90;;;;;;5053314;28;20498;-52
2022/04/23 05:53:36;;;;;;;13.20;11.90;;;6.70;99.90;;;;;;5053221;28;20926;-52
2022/04/23 05:56:04;;;;;;;12.53;11.30;;;6.80;99.90;;;;;;5054262;28;20464;-52
2022/04/23 05:58:30;;;;;;;12.13;11.00;;;6.90;99.90;;;;;;5052060;28;21297;-52
2022/04/23 06:00:57;;;;;;;11.97;10.87;;;7.10;99.90;;;;;;5052595;28;20488;-52
2022/04/23 06:03:23;;;;;;;12.00;10.90;;;7.30;99.90;;;;;;5053197;28;20492;-53
2022/04/23 06:05:51;;;;;;;13.20;12.10;;;7.50;99.90;;;;;;5052104;28;20490;-53
2022/04/23 06:08:17;;;;;;;12.93;11.70;;;7.70;99.90;;;;;;5053213;28;20500;-53
2022/04/23 06:10:44;;;;;;;12.00;10.80;;;7.80;99.90;;;;;;5052520;28;20540;-53
2022/04/23 06:13:12;;;;;;;12.43;11.27;;;7.90;99.90;;;;;;5051954;28;20548;-53
2022/04/23 06:15:38;;;;;;;12.53;11.33;;;8.20;99.90;;;;;;5051748;28;20492;-52
2022/04/23 06:18:05;;;;;;;12.23;11.07;;;8.40;99.90;;;;;;5051364;28;21242;-53
2022/04/23 06:20:32;;;;;;;11.87;10.80;;;8.50;99.90;;;;;;5049968;28;20545;-53
2022/04/23 06:22:58;;;;;;;14.30;11.70;;;8.80;99.90;;;;;;5052693;28;20489;-52
2022/04/23 06:25:25;;;;;;;11.60;10.50;;;9.10;28.60;;;;;;5052050;28;21065;-51
2022/04/23 06:27:52;;;;;;;12.83;11.60;;;9.30;36.80;;;;;;5052596;28;22113;-53
2022/04/23 06:30:19;;;;;;;12.27;11.03;;;9.50;45.90;;;;;;5052631;28;20517;-53
2022/04/23 06:32:46;;;;;;;13.17;10.53;;;9.60;51.10;;;;;;5052135;28;20485;-52
2022/04/23 06:35:13;;;;;;;11.13;10.03;;;9.70;49.50;;;;;;5051900;28;20953;-52
2022/04/23 06:37:41;;;;;;;12.00;10.80;;;9.80;51.20;;;;;;5051889;28;20489;-53
2022/04/23 06:40:10;;;;;;;11.77;10.67;;;9.90;62.30;;;;;;5059866;28;21092;-52
2022/04/23 06:42:37;;;;;;;11.07;10.00;;;9.90;81.00;;;;;;5047184;28;20925;-52
2022/04/23 06:45:05;;;;;;;15.10;10.40;;;10.20;70.60;;;;;;5048954;28;21197;-52
2022/04/23 06:47:33;;;;;;;10.63;9.63;;;10.60;85.60;;;;;;5049766;28;20533;-52
2022/04/23 06:50:00;;;;;;;15.20;10.10;;;11.20;89.20;;;;;;5051097;28;20571;-52
2022/04/23 06:52:26;;;;;;;11.23;10.33;;;11.70;99.90;;;;;;5049018;28;20929;-53
2022/04/23 06:54:54;;;;;;;11.60;10.40;;;11.60;99.90;;;;;;5049113;28;20497;-52
2022/04/23 06:57:22;;;;;;;11.33;10.13;;;11.60;99.90;;;;;;5046815;28;20492;-52
2022/04/23 06:59:49;;;;;;;11.50;10.37;;;11.60;99.90;;;;;;5050194;28;20469;-52
2022/04/23 07:02:15;;;;;;;12.37;9.57;;;11.40;99.90;;;;;;5048442;28;20472;-52
2022/04/23 07:04:43;;;;;;;10.37;9.37;;;11.80;99.90;;;;;;5044808;28;20557;-53
2022/04/23 07:07:10;;;;;;;10.83;9.83;;;11.80;99.90;;;;;;5041906;28;20567;-53
2022/04/23 07:09:37;;;;;;;10.83;9.73;;;11.90;99.90;;;;;;5057296;22;20490;-50
2022/04/23 07:12:05;;;;;;;15.03;9.70;;;11.70;99.90;;;;;;5049713;28;20466;-51
2022/04/23 07:14:32;;;;;;;10.57;9.03;;;12.00;99.90;;;;;;5049241;28;20461;-50
2022/04/23 07:16:59;;;;;;;13.23;9.13;;;12.20;99.90;;;;;;5047997;28;20457;-50
2022/04/23 07:19:26;;;;;;;9.90;9.00;;;12.50;99.90;;;;;;5049771;28;20509;-48
2022/04/23 07:21:53;;;;;;;9.53;8.47;;;12.30;99.90;;;;;;5048367;28;20493;-51
2022/04/23 07:24:20;;;;;;;9.13;8.33;;;12.10;99.90;;;;;;5051074;28;20839;-50
2022/04/23 07:26:47;;;;;;;8.93;8.00;;;12.00;99.90;;;;;;5048951;28;20454;-50
2022/04/23 07:29:13;;;;;;;8.17;7.47;;;12.30;99.90;;;;;;5049835;28;20524;-50
2022/04/23 07:31:40;;;;;;;8.77;7.97;;;12.40;99.90;;;;;;5050019;28;20531;-51
2022/04/23 07:39:37;;;;;;;8.40;7.70;;;12.70;99.90;;;;;;5041885;28;22042;-51
2022/04/23 07:42:05;;;;;;;11.90;8.20;;;12.80;99.90;;;;;;5048181;28;20454;-50
2022/04/23 07:44:32;;;;;;;9.23;8.47;;;12.90;99.90;;;;;;5044683;28;20501;-50
2022/04/23 07:46:59;;;;;;;9.60;8.70;;;13.30;99.90;;;;;;5048060;28;20463;-50
2022/04/23 07:49:25;;;;;;;8.83;8.13;;;13.70;99.90;;;;;;5048811;28;20543;-50
2022/04/23 07:51:52;;;;;;;8.20;7.50;;;13.80;99.90;;;;;;5043079;28;20563;-50
2022/04/23 07:54:19;;;;;;;7.70;7.00;;;13.80;99.90;;;;;;5042607;28;20458;-50
2022/04/23 07:56:46;;;;;;;8.63;7.83;;;14.00;99.90;;;;;;5046125;28;20461;-50
2022/04/23 07:59:13;;;;;;;8.40;7.70;;;13.90;99.90;;;;;;5046090;28;20505;-50
2022/04/23 08:01:40;;;;;;;7.50;6.90;;;14.10;99.90;;;;;;5043368;28;20458;-50
2022/04/23 08:04:06;;;;;;;9.30;8.50;;;14.50;99.90;;;;;;5047136;28;20489;-50
2022/04/23 08:06:34;;;;;;;8.70;8.00;;;14.50;99.90;;;;;;5045509;28;20524;-50
2022/04/23 08:09:00;;;;;;;9.00;8.20;;;14.70;1.40;;;;;;5044088;28;20465;-50
2022/04/23 08:11:27;;;;;;;8.87;8.07;;;14.90;99.90;;;;;;5039901;28;20857;-51
2022/04/23 08:13:55;;;;;;;8.40;7.63;;;14.90;99.90;;;;;;5044748;28;20600;-51
2022/04/23 08:16:22;;;;;;;8.23;7.57;;;15.10;99.90;;;;;;5049715;28;20465;-51
2022/04/23 08:18:48;;;;;;;8.03;7.33;;;15.10;99.90;;;;;;5053648;28;20453;-51
2022/04/23 08:21:15;;;;;;;8.80;6.83;;;15.50;99.90;;;;;;5046551;28;20473;-51
2022/04/23 08:23:42;;;;;;;7.83;7.23;;;15.70;99.90;;;;;;5045546;28;20462;-51
2022/04/23 08:26:09;;;;;;;7.20;6.53;;;15.70;99.90;;;;;;5049665;28;20458;-51
2022/04/23 08:31:22;;;;;;;6.80;6.30;;;16.20;99.90;;;;;;5044383;28;20535;-50
2022/04/23 08:34:00;;;;;;;7.70;6.60;;;16.40;99.90;;;;;;5045099;28;20469;-50
2022/04/23 08:36:31;;;;;;;7.10;6.60;;;16.30;99.90;;;;;;5049170;28;20465;-50
2022/04/23 08:38:58;;;;;;;7.03;6.10;;;15.80;99.90;;;;;;5041943;28;20476;-51
2022/04/23 08:41:28;;;;;;;7.40;6.70;;;16.00;99.90;;;;;;5046688;28;21015;-50
2022/04/23 08:43:58;;;;;;;7.73;7.03;;;16.70;99.90;;;;;;5046106;28;20458;-51
2022/04/23 08:46:27;;;;;;;6.20;5.70;;;16.70;99.90;;;;;;5044929;28;20482;-50
2022/04/23 08:49:13;;;;;;;6.73;6.13;;;17.50;99.90;;;;;;5047604;28;20492;-50
2022/04/23 08:51:41;;;;;;;6.97;6.37;;;18.10;99.90;;;;;;5044378;28;20521;-51
2022/04/23 08:54:10;;;;;;;6.37;5.80;;;18.30;99.90;;;;;;5047692;28;20469;-51
2022/04/23 08:56:38;;;;;;;6.87;6.37;;;18.40;99.90;;;;;;5047810;28;20880;-49
2022/04/23 08:59:06;;;;;;;6.83;6.23;;;19.00;99.90;;;;;;5045654;28;20463;-50
2022/04/23 09:01:35;;;;;;;6.70;6.10;;;18.50;99.90;;;;;;5041931;28;20449;-51
2022/04/23 09:04:03;;;;;;;5.87;5.37;;;18.00;99.90;;;;;;5043466;28;20545;-51
2022/04/23 09:06:35;;;;;;;6.10;5.70;;;18.70;99.90;;;;;;5039979;28;20457;-50
2022/04/23 09:09:13;;;;;;;7.37;6.77;;;18.60;99.90;;;;;;5037748;28;20453;-51
2022/04/23 09:11:41;;;;;;;5.80;5.30;;;18.70;99.90;;;;;;5042315;28;20457;-50
2022/04/23 09:14:09;;;;;;;6.07;5.63;;;18.70;99.90;;;;;;5045341;28;20548;-50
2022/04/23 09:25:10;;;;;;;6.73;5.53;;;18.60;99.90;;;;;;5038367;28;20480;-51
2022/04/23 09:27:37;;;;;;;5.83;5.33;;;18.60;99.90;;;;;;5048085;28;20910;-51
2022/04/23 09:30:06;;;;;;;5.60;5.30;;;18.00;99.90;;;;;;5043375;28;20877;-51
2022/04/23 09:32:34;;;;;;;7.43;5.80;;;18.10;99.90;;;;;;5045114;28;20467;-50
2022/04/23 09:35:05;;;;;;;13.20;4.90;;;18.60;99.90;;;;;;5047442;28;20458;-51
2022/04/23 09:38:11;;;;;;;4.87;4.40;;;18.40;99.90;;;;;;5049890;28;20562;-50
2022/04/23 09:40:21;;;;;;;5.27;4.87;;;19.20;99.90;;;;;;5047752;28;20496;-50
2022/04/23 09:42:56;;;;;;;4.70;4.40;;;19.30;99.90;;;;;;5049212;28;21544;-50
2022/04/23 09:45:27;;;;;;;4.27;4.07;;;19.60;99.90;;;;;;5048799;28;20544;-49
2022/04/23 09:47:54;;;;;;;4.27;3.97;;;20.10;99.90;;;;;;5050218;28;20957;-50
2022/04/23 09:50:21;;;;;;;5.93;4.40;;;19.90;99.90;;;;;;5042567;28;20486;-50
2022/04/23 09:52:49;;;;;;;4.40;4.10;;;18.50;99.90;;;;;;5043673;28;20472;-49
2022/04/23 09:55:17;;;;;;;4.23;3.93;;;19.00;99.90;;;;;;5050332;28;20953;-50
2022/04/23 09:57:45;;;;;;;3.90;3.67;;;19.80;99.90;;;;;;5050430;28;20457;-50
2022/04/23 10:00:12;;;;;;;4.20;3.93;;;20.60;99.90;;;;;;5043427;28;20488;-51
2022/04/23 10:02:39;;;;;;;4.80;4.40;;;19.90;99.90;;;;;;5046067;28;20555;-51
2022/04/23 10:05:10;;;;;;;4.90;4.60;;;20.20;99.90;;;;;;5050189;28;20492;-50
2022/04/23 10:07:41;;;;;;;4.70;4.20;;;19.60;99.90;;;;;;5049532;28;20485;-50
2022/04/23 10:10:12;;;;;;;4.87;4.47;;;19.70;99.90;;;;;;5047865;28;20580;-50
2022/04/23 10:12:43;;;;;;;5.07;4.60;;;20.00;99.90;;;;;;5051805;28;20497;-50
2022/04/23 10:15:10;;;;;;;4.30;4.10;;;20.40;99.90;;;;;;5053022;28;20863;-50
2022/04/23 10:17:38;;;;;;;3.93;3.73;;;21.00;99.90;;;;;;5052097;28;20457;-50
2022/04/23 10:20:05;;;;;;;5.20;4.80;;;21.20;99.90;;;;;;5051865;28;21023;-50
2022/04/23 10:22:44;;;;;;;4.57;4.27;;;21.60;99.90;;;;;;5043256;28;20459;-51
2022/04/23 10:25:22;;;;;;;3.90;3.60;;;20.70;99.90;;;;;;5047939;28;20898;-50
2022/04/23 10:27:49;;;;;;;4.40;4.00;;;20.10;99.90;;;;;;5050695;28;20460;-51
2022/04/23 10:30:17;;;;;;;3.83;3.53;;;19.50;99.90;;;;;;5048980;28;20841;-50
2022/04/23 10:32:44;;;;;;;4.80;4.40;;;18.90;99.90;;;;;;5052699;28;20494;-50
2022/04/23 10:35:35;;;;;;;4.80;4.40;;;17.70;99.90;;;;;;5049594;28;20531;-51
2022/04/23 10:38:19;;;;;;;4.07;3.77;;;18.60;99.90;;;;;;5046850;28;20458;-50
2022/04/23 10:40:46;;;;;;;5.37;4.87;;;18.70;99.90;;;;;;5046250;28;20489;-50
2022/04/23 10:43:18;;;;;;;4.83;4.53;;;19.70;99.90;;;;;;5045800;28;20830;-51
2022/04/23 10:45:46;;;;;;;4.53;4.23;;;19.60;99.90;;;;;;5045464;28;20536;-51
2022/04/23 10:48:30;;;;;;;11.20;4.87;;;20.00;99.90;;;;;;5043933;28;20537;-50
2022/04/23 10:51:05;;;;;;;4.83;4.30;;;19.00;99.90;;;;;;5045815;28;20875;-52
2022/04/23 10:53:51;;;;;;;4.00;3.80;;;19.70;99.90;;;;;;5044909;28;20457;-51
2022/04/23 10:56:19;;;;;;;3.83;3.53;;;18.80;99.90;;;;;;5045959;28;20979;-51
2022/04/23 10:58:46;;;;;;;4.47;4.17;;;18.90;99.90;;;;;;5049548;28;20545;-50
2022/04/23 11:01:20;;;;;;;4.40;4.10;;;19.00;99.90;;;;;;5051477;28;20438;-51
2022/04/23 11:03:57;;;;;;;4.40;4.10;;;19.00;99.90;;;;;;5051396;28;20462;-50
2022/04/23 11:12:34;;;;;;;3.50;3.30;;;19.10;99.90;;;;;;5049947;28;20431;-51
2022/04/23 11:15:02;;;;;;;3.77;3.53;;;18.30;99.90;;;;;;5052981;28;20470;-50
2022/04/23 11:17:53;;;;;;;10.83;4.53;;;17.60;99.90;;;;;;5051547;28;20497;-50
2022/04/23 11:20:28;;;;;;;4.33;3.93;;;18.90;99.90;;;;;;5047558;28;20466;-50
2022/04/23 11:22:55;;;;;;;4.57;4.27;;;19.50;99.90;;;;;;5052448;28;20453;-50
2022/04/23 11:25:24;;;;;;;4.40;4.13;;;20.10;99.90;;;;;;5052617;28;21010;-50
2022/04/23 11:27:50;;;;;;;3.50;3.30;;;20.20;99.90;;;;;;5053038;28;20477;-51
2022/04/23 11:30:27;;;;;;;5.03;4.67;;;19.10;99.90;;;;;;5050782;28;20871;-50
2022/04/23 11:32:54;;;;;;;4.30;4.00;;;18.30;99.90;;;;;;5052215;28;21184;-51
2022/04/23 11:35:29;;;;;;;4.77;4.37;;;18.60;99.90;;;;;;5052419;28;20472;-50
2022/04/23 11:37:55;;;;;;;4.67;4.27;;;18.20;99.90;;;;;;5047959;28;20527;-50
2022/04/23 11:40:28;;;;;;;3.93;3.70;;;18.00;99.90;;;;;;5051635;28;21004;-50
2022/04/23 11:42:55;;;;;;;5.40;4.53;;;17.80;99.90;;;;;;5052368;28;20956;-51
2022/04/23 11:45:23;;;;;;;4.83;4.47;;;17.90;99.90;;;;;;5049004;28;20493;-51
2022/04/23 11:47:50;;;;;;;4.73;4.37;;;18.30;99.90;;;;;;5047011;28;20843;-50
2022/04/23 11:50:21;;;;;;;4.43;4.23;;;18.70;99.90;;;;;;5051783;28;20493;-50
2022/04/23 11:52:57;;;;;;;5.53;5.07;;;18.20;99.90;;;;;;5044804;28;20472;-51
2022/04/23 11:55:27;;;;;;;4.60;4.30;;;17.90;99.90;;;;;;5041708;28;20469;-51
2022/04/23 11:57:55;;;;;;;4.97;4.57;;;17.70;99.90;;;;;;5042824;28;20568;-51
2022/04/23 12:00:22;;;;;;;4.93;4.63;;;17.50;99.90;;;;;;5042528;28;20489;-51
2022/04/23 12:02:49;;;;;;;4.00;3.73;;;18.10;99.90;;;;;;5044661;28;20469;-51
2022/04/23 12:05:23;;;;;;;4.93;4.47;;;18.10;99.90;;;;;;5045177;28;20528;-51
2022/04/23 12:07:49;;;;;;;5.03;4.63;;;19.10;99.90;;;;;;5047245;28;20462;-51
2022/04/23 12:10:22;;;;;;;4.57;4.27;;;20.00;99.90;;;;;;5043417;28;20534;-52
2022/04/23 12:12:51;;;;;;;5.53;5.07;;;20.60;99.90;;;;;;5044146;28;20969;-52
2022/04/23 12:15:20;;;;;;;4.87;4.50;;;20.50;99.90;;;;;;5050981;28;20469;-52
2022/04/23 12:17:48;;;;;;;4.50;4.20;;;19.00;99.90;;;;;;5045040;28;20475;-51
2022/04/23 12:20:16;;;;;;;5.43;4.93;;;19.00;99.90;;;;;;5034885;28;20561;-52
2022/04/23 12:22:55;;;;;;;4.13;3.83;;;19.40;99.90;;;;;;5044696;28;20458;-52
2022/04/23 12:25:25;;;;;;;4.60;4.20;;;20.50;99.90;;;;;;5035538;28;20950;-53
2022/04/23 12:27:57;;;;;;;4.80;4.40;;;20.50;99.90;;;;;;5043646;28;20453;-51
2022/04/23 12:41:36;;;;;;;4.90;3.37;;;20.00;99.90;;;;;;5040789;28;20445;-51
2022/04/23 12:44:18;;;;;;;4.27;4.07;;;19.50;99.90;;;;;;5042358;28;20488;-51
2022/04/23 12:46:57;;;;;;;4.10;3.80;;;19.00;99.90;;;;;;5048947;28;20489;-51
2022/04/23 12:49:24;;;;;;;3.93;3.60;;;19.20;99.90;;;;;;5045274;28;20520;-51
2022/04/23 12:51:51;;;;;;;4.63;4.20;;;20.20;99.90;;;;;;5048991;28;20509;-51
2022/04/23 12:54:20;;;;;;;4.30;3.97;;;20.30;99.90;;;;;;5038080;28;20558;-51
2022/04/23 12:56:46;;;;;;;3.77;3.57;;;20.00;99.90;;;;;;5041544;28;20457;-51
2022/04/23 12:59:13;;;;;;;4.20;3.90;;;19.90;99.90;;;;;;5040142;28;20532;-51
2022/04/23 13:01:41;;;;;;;4.43;4.03;;;19.00;99.90;;;;;;5048411;28;20494;-51
2022/04/23 13:04:10;;;;;;;4.83;4.40;;;19.00;99.90;;;;;;5045352;28;20535;-51
2022/04/23 13:09:21;;;;;;;4.00;3.70;;;19.10;99.90;;;;;;5051300;22;20508;-52
2022/04/23 13:11:48;;;;;;;4.73;4.33;;;19.10;99.90;;;;;;5044009;28;20572;-51
2022/04/23 13:14:16;;;;;;;5.93;3.50;;;19.20;99.90;;;;;;5045162;28;20531;-52
2022/04/23 13:16:44;;;;;;;3.60;3.40;;;20.40;99.90;;;;;;5048989;28;20553;-52
2022/04/23 13:19:11;;;;;;;3.70;3.40;;;20.50;99.90;;;;;;5044051;28;20472;-53
2022/04/23 13:21:37;;;;;;;5.67;5.17;;;19.70;99.90;;;;;;5052566;28;20760;-52
2022/04/23 13:24:04;;;;;;;3.87;3.57;;;19.60;99.90;;;;;;5046169;28;20466;-52
2022/04/23 13:26:31;;;;;;;3.93;3.60;;;18.40;99.90;;;;;;5053047;28;20512;-53
2022/04/23 13:28:58;;;;;;;5.80;5.20;;;18.00;99.90;;;;;;5049554;28;20469;-52